createdAt,value
2022-11-05T00:01:15.690Z,100936.09
2022-11-05T00:04:04.244Z,100934.34
2022-11-05T00:06:49.739Z,100926.44
2022-11-05T00:09:32.516Z,100929.94
2022-11-05T00:12:25.154Z,100934.38
2022-11-05T00:15:10.291Z,100920.25
2022-11-05T00:17:37.011Z,100919.41
2022-11-05T00:20:04.771Z,100919.34
2022-11-05T00:22:50.914Z,100922.00
2022-11-05T00:25:19.198Z,100922.91
2022-11-05T00:27:51.100Z,100913.16
2022-11-05T00:30:23.667Z,100911.41
2022-11-05T00:32:54.129Z,100912.25
2022-11-05T00:35:22.640Z,100911.38
2022-11-05T00:37:52.339Z,100922.81
2022-11-05T00:40:19.240Z,100934.28
2022-11-05T00:43:04.578Z,100925.41
2022-11-05T00:45:32.439Z,100921.88
2022-11-05T00:48:17.349Z,100928.91
2022-11-05T00:50:43.939Z,100926.19
2022-11-05T00:53:10.862Z,100923.59
2022-11-05T00:55:45.115Z,100928.03
2022-11-05T00:58:14.911Z,100917.44
2022-11-05T01:00:46.060Z,100917.44
2022-11-05T01:03:15.175Z,100919.16
2022-11-05T01:05:45.047Z,100913.00
2022-11-05T01:08:13.236Z,100913.94
2022-11-05T01:10:48.537Z,100917.44
2022-11-05T01:13:20.952Z,100910.38
2022-11-05T01:15:48.919Z,100910.34
2022-11-05T01:18:15.522Z,100929.75
2022-11-05T01:20:55.640Z,100919.16
2022-11-05T01:23:24.524Z,100911.16
2022-11-05T01:25:51.130Z,100919.06
2022-11-05T01:28:18.873Z,100915.56
2022-11-05T01:30:45.601Z,100919.09
2022-11-05T01:33:12.443Z,100907.66
2022-11-05T01:35:41.620Z,100905.84
2022-11-05T01:38:08.139Z,100913.81
2022-11-05T01:40:34.897Z,100899.72
2022-11-05T01:43:01.604Z,100901.47
2022-11-05T01:45:31.599Z,100893.53
2022-11-05T01:47:58.185Z,100900.56
2022-11-05T01:50:40.128Z,100894.31
2022-11-05T01:53:09.691Z,100881.06
2022-11-05T01:55:41.780Z,100886.44
2022-11-05T01:58:17.110Z,100882.91
2022-11-05T02:00:44.160Z,100883.78
2022-11-05T02:03:13.307Z,100888.25
2022-11-05T02:05:43.073Z,100879.38
2022-11-05T02:08:22.086Z,100876.72
2022-11-05T02:10:48.903Z,100871.44
2022-11-05T02:13:15.550Z,100876.72
2022-11-05T02:15:57.099Z,100884.69
2022-11-05T02:18:41.253Z,100877.66
2022-11-05T02:21:28.851Z,100882.03
2022-11-05T02:24:20.933Z,100881.22
2022-11-05T02:27:00.732Z,100881.22
2022-11-05T02:29:30.312Z,100882.03
2022-11-05T02:32:20.260Z,100877.63
2022-11-05T02:35:19.012Z,100882.94
2022-11-05T02:37:53.262Z,100878.56
2022-11-05T02:40:32.215Z,100871.56
2022-11-05T02:43:04.927Z,100874.22
2022-11-05T02:45:37.452Z,100869.84
2022-11-05T02:48:28.488Z,100875.16
2022-11-05T02:51:31.563Z,100876.09
2022-11-05T02:54:56.781Z,100877.84
2022-11-05T02:57:23.468Z,100880.47
2022-11-05T03:00:00.900Z,100883.13
2022-11-05T03:02:27.637Z,100885.78
2022-11-05T03:04:54.309Z,100890.19
2022-11-05T03:07:38.469Z,100885.78
2022-11-05T03:10:28.352Z,100887.53
2022-11-05T03:13:03.901Z,100888.41
2022-11-05T03:15:38.476Z,100885.75
2022-11-05T03:18:14.217Z,100890.13
2022-11-05T03:20:50.584Z,100886.59
2022-11-05T03:23:27.262Z,100888.34
2022-11-05T03:26:02.657Z,100877.75
2022-11-05T03:28:32.964Z,100885.66
2022-11-05T03:31:01.585Z,100890.09
2022-11-05T03:33:31.412Z,100893.63
2022-11-05T03:36:03.685Z,100890.09
2022-11-05T03:38:34.863Z,100884.88
2022-11-05T03:41:06.039Z,100898.94
2022-11-05T03:43:37.560Z,100899.78
2022-11-05T03:46:15.950Z,100893.53
2022-11-05T03:48:47.459Z,100900.56
2022-11-05T03:51:34.049Z,100906.69
2022-11-05T03:54:03.070Z,100908.47
2022-11-05T03:56:44.580Z,100906.69
2022-11-05T03:59:12.371Z,100906.66
2022-11-05T04:01:39.672Z,100907.53
2022-11-05T04:04:07.553Z,100900.44
2022-11-05T04:06:53.136Z,100903.09
2022-11-05T04:09:38.167Z,100905.69
2022-11-05T04:12:23.795Z,100894.22
2022-11-05T04:14:50.372Z,100901.25
2022-11-05T04:17:16.947Z,100887.97
2022-11-05T04:20:03.093Z,100890.66
2022-11-05T04:22:50.563Z,100887.13
2022-11-05T04:25:18.757Z,100889.69
2022-11-05T04:27:46.223Z,100887.13
2022-11-05T04:30:21.845Z,100888.00
2022-11-05T04:33:04.627Z,100884.47
2022-11-05T04:35:37.316Z,100879.19
2022-11-05T04:38:15.069Z,100887.13
2022-11-05T04:40:42.070Z,100883.59
2022-11-05T04:43:17.209Z,100885.31
2022-11-05T04:45:44.798Z,100882.69
2022-11-05T04:48:12.295Z,100882.69
2022-11-05T04:50:39.429Z,100882.69
2022-11-05T04:53:06.036Z,100887.06
2022-11-05T04:55:32.628Z,100877.38
2022-11-05T04:57:59.268Z,100879.09
2022-11-05T05:00:25.971Z,100883.53
2022-11-05T05:02:52.648Z,100883.53
2022-11-05T05:05:19.431Z,100875.66
2022-11-05T05:07:46.065Z,100874.72
2022-11-05T05:10:13.201Z,100872.09
2022-11-05T05:12:39.954Z,100877.38
2022-11-05T05:15:07.129Z,100874.72
2022-11-05T05:17:33.696Z,100873.03
2022-11-05T05:20:18.969Z,100869.44
2022-11-05T05:22:52.738Z,100873.81
2022-11-05T05:25:19.340Z,100865.94
2022-11-05T05:27:45.996Z,100870.34
2022-11-05T05:30:12.823Z,100863.31
2022-11-05T05:32:39.395Z,100865.06
2022-11-05T05:35:06.318Z,100861.59
2022-11-05T05:37:32.943Z,100868.59
2022-11-05T05:39:59.589Z,100862.44
2022-11-05T05:42:26.131Z,100865.09
2022-11-05T05:44:52.694Z,100858.94
2022-11-05T05:47:19.300Z,100862.41
2022-11-05T05:49:45.885Z,100858.00
2022-11-05T05:52:12.467Z,100860.63
2022-11-05T05:54:42.754Z,100867.72
2022-11-05T05:57:09.863Z,100863.31
2022-11-05T05:59:36.515Z,100873.03
2022-11-05T06:02:03.231Z,100863.41
2022-11-05T06:04:29.914Z,100866.03
2022-11-05T06:06:56.499Z,100866.94
2022-11-05T06:09:23.122Z,100867.81
2022-11-05T06:11:49.675Z,100867.81
2022-11-05T06:14:16.284Z,100873.09
2022-11-05T06:16:42.874Z,100863.41
2022-11-05T06:19:09.528Z,100858.16
2022-11-05T06:21:36.169Z,100861.66
2022-11-05T06:24:03.545Z,100864.31
2022-11-05T06:26:30.389Z,100860.81
2022-11-05T06:28:57.167Z,100862.63
2022-11-05T06:31:24.064Z,100865.28
2022-11-05T06:33:50.978Z,100869.72
2022-11-05T06:36:19.109Z,100866.19
2022-11-05T06:38:45.976Z,100862.69
2022-11-05T06:41:15.825Z,100859.19
2022-11-05T06:43:45.609Z,100859.22
2022-11-05T06:46:14.871Z,100861.84
2022-11-05T06:48:47.303Z,100860.13
2022-11-05T06:51:16.358Z,100856.63
2022-11-05T06:53:42.953Z,100859.22
2022-11-05T06:56:09.847Z,100856.63
2022-11-05T06:58:38.874Z,100858.41
2022-11-05T07:01:08.724Z,100854.94
2022-11-05T07:03:36.620Z,100857.56
2022-11-05T07:06:04.718Z,100858.50
2022-11-05T07:08:32.867Z,100849.63
2022-11-05T07:11:00.245Z,100867.25
2022-11-05T07:13:27.296Z,100857.56
2022-11-05T07:15:57.234Z,100873.47
2022-11-05T07:18:26.472Z,100860.22
2022-11-05T07:20:53.048Z,100862.94
2022-11-05T07:23:19.823Z,100863.72
2022-11-05T07:25:46.850Z,100858.50
2022-11-05T07:28:14.602Z,100860.22
2022-11-05T07:30:41.652Z,100856.75
2022-11-05T07:33:08.889Z,100862.94
2022-11-05T07:35:35.873Z,100861.16
2022-11-05T07:38:10.706Z,100854.94
2022-11-05T07:40:39.746Z,100860.22
2022-11-05T07:43:06.295Z,100865.50
2022-11-05T07:45:32.912Z,100861.94
2022-11-05T07:48:07.186Z,100855.78
2022-11-05T07:50:36.550Z,100850.56
2022-11-05T07:53:06.168Z,100854.00
2022-11-05T07:55:33.212Z,100857.47
2022-11-05T07:57:59.928Z,100863.69
2022-11-05T08:00:29.330Z,100847.81
2022-11-05T08:03:08.869Z,100854.00
2022-11-05T08:05:38.599Z,100854.00
2022-11-05T08:08:07.870Z,100844.31
2022-11-05T08:10:35.348Z,100846.06
2022-11-05T08:13:04.891Z,100847.84
2022-11-05T08:15:32.202Z,100851.31
2022-11-05T08:18:10.445Z,100845.16
2022-11-05T08:20:38.514Z,100845.19
2022-11-05T08:23:05.563Z,100845.19
2022-11-05T08:25:32.671Z,100843.47
2022-11-05T08:28:11.629Z,100833.81
2022-11-05T08:30:38.263Z,100844.31
2022-11-05T08:33:12.108Z,100832.00
2022-11-05T08:35:40.027Z,100840.84
2022-11-05T08:38:09.131Z,100815.28
2022-11-05T08:40:39.759Z,100825.88
2022-11-05T08:43:07.937Z,100822.31
2022-11-05T08:45:38.257Z,100815.25
2022-11-05T08:48:07.865Z,100814.38
2022-11-05T08:50:34.985Z,100814.38
2022-11-05T08:53:01.864Z,100806.41
2022-11-05T08:55:28.877Z,100808.97
2022-11-05T08:57:57.360Z,100803.75
2022-11-05T09:00:24.592Z,100801.97
2022-11-05T09:02:51.261Z,100794.97
2022-11-05T09:05:21.196Z,100800.25
2022-11-05T09:07:47.770Z,100794.09
2022-11-05T09:10:14.417Z,100791.44
2022-11-05T09:12:41.064Z,100791.38
2022-11-05T09:15:09.258Z,100782.56
2022-11-05T09:17:35.915Z,100789.59
2022-11-05T09:20:05.000Z,100790.44
2022-11-05T09:22:31.754Z,100786.94
2022-11-05T09:24:58.340Z,100784.28
2022-11-05T09:27:24.914Z,100791.38
2022-11-05T09:29:51.484Z,100779.84
2022-11-05T09:32:19.355Z,100784.28
2022-11-05T09:34:45.956Z,100786.06
2022-11-05T09:37:22.655Z,100781.69
2022-11-05T09:39:49.290Z,100784.28
2022-11-05T09:42:17.707Z,100778.19
2022-11-05T09:44:51.902Z,100771.97
2022-11-05T09:47:24.762Z,100779.06
2022-11-05T09:49:57.356Z,100774.66
2022-11-05T09:52:26.974Z,100770.28
2022-11-05T09:54:55.582Z,100767.59
2022-11-05T09:57:27.611Z,100776.44
2022-11-05T10:00:02.883Z,100768.56
2022-11-05T10:02:46.141Z,100765.91
2022-11-05T10:05:14.749Z,100763.25
2022-11-05T10:07:45.951Z,100771.34
2022-11-05T10:10:25.165Z,100771.44
2022-11-05T10:12:56.630Z,100767.13
2022-11-05T10:15:29.720Z,100768.94
2022-11-05T10:18:05.215Z,100766.34
2022-11-05T10:20:42.412Z,100759.44
2022-11-05T10:23:15.651Z,100763.88
2022-11-05T10:25:47.386Z,100763.13
2022-11-05T10:28:19.373Z,100757.13
2022-11-05T10:30:48.542Z,100755.41
2022-11-05T10:33:25.272Z,100755.50
2022-11-05T10:35:57.144Z,100745.00
2022-11-05T10:38:24.223Z,100753.91
2022-11-05T10:41:08.014Z,100744.28
2022-11-05T10:44:02.427Z,100746.97
2022-11-05T10:46:38.796Z,100743.56
2022-11-05T10:49:27.196Z,100728.69
2022-11-05T10:51:59.992Z,100734.94
2022-11-05T10:54:34.504Z,100732.34
2022-11-05T10:57:01.052Z,100734.16
2022-11-05T10:59:29.927Z,100724.50
2022-11-05T11:02:15.261Z,100716.56
2022-11-05T11:04:42.075Z,100716.56
2022-11-05T11:07:23.419Z,100716.56
2022-11-05T11:09:51.588Z,100710.41
2022-11-05T11:12:28.939Z,100710.41
2022-11-05T11:15:13.880Z,100707.72
2022-11-05T11:17:41.198Z,100709.50
2022-11-05T11:20:25.139Z,100709.53
2022-11-05T11:23:13.039Z,100708.72
2022-11-05T11:25:48.134Z,100701.69
2022-11-05T11:28:19.901Z,100707.03
2022-11-05T11:30:52.963Z,100703.47
2022-11-05T11:33:25.855Z,100699.94
2022-11-05T11:35:52.668Z,100701.66
2022-11-05T11:38:19.359Z,100700.78
2022-11-05T11:40:46.184Z,100705.22
2022-11-05T11:43:28.212Z,100699.94
2022-11-05T11:46:00.796Z,100691.06
2022-11-05T11:48:34.379Z,100682.22
2022-11-05T11:51:18.704Z,100686.56
2022-11-05T11:53:48.269Z,100679.47
2022-11-05T11:56:18.258Z,100691.78
2022-11-05T11:58:50.841Z,100682.09
2022-11-05T12:01:41.872Z,100688.19
2022-11-05T12:04:39.616Z,100676.75
2022-11-05T12:07:27.675Z,100676.81
2022-11-05T12:10:19.980Z,100668.88
2022-11-05T12:12:52.228Z,100661.88
2022-11-05T12:15:40.739Z,100656.69
2022-11-05T12:18:26.227Z,100658.47
2022-11-05T12:21:40.758Z,100654.03
2022-11-05T12:24:21.928Z,100650.47
2022-11-05T12:27:11.089Z,100646.03
2022-11-05T12:30:20.613Z,100641.66
2022-11-05T12:33:16.360Z,100633.72
2022-11-05T12:36:06.844Z,100633.72
2022-11-05T12:38:41.928Z,100636.34
2022-11-05T12:41:30.396Z,100625.78
2022-11-05T12:44:14.791Z,100618.63
2022-11-05T12:47:12.639Z,100618.63
2022-11-05T12:50:04.400Z,100624.75
2022-11-05T12:52:53.387Z,100616.72
2022-11-05T12:55:26.275Z,100615.81
2022-11-05T12:57:56.160Z,100614.00
2022-11-05T13:00:25.615Z,100601.72
2022-11-05T13:03:12.307Z,100601.72
2022-11-05T13:05:43.442Z,100601.66
2022-11-05T13:08:33.435Z,100606.03
2022-11-05T13:11:16.033Z,100604.25
2022-11-05T13:14:21.586Z,100598.91
2022-11-05T13:16:53.273Z,100600.69
2022-11-05T13:19:25.332Z,100603.41
2022-11-05T13:22:01.340Z,100590.16
2022-11-05T13:24:34.769Z,100595.47
2022-11-05T13:27:52.905Z,100592.81
2022-11-05T13:30:25.763Z,100595.47
2022-11-05T13:33:01.962Z,100586.69
2022-11-05T13:35:40.796Z,100585.00
2022-11-05T13:38:33.548Z,100586.78
2022-11-05T13:41:19.955Z,100589.44
2022-11-05T13:44:04.756Z,100578.91
2022-11-05T13:46:38.691Z,100592.09
2022-11-05T13:49:40.682Z,100580.63
2022-11-05T13:52:33.259Z,100568.28
2022-11-05T13:55:12.168Z,100579.78
2022-11-05T13:58:11.321Z,100573.63
2022-11-05T14:01:00.486Z,100577.16
2022-11-05T14:03:27.763Z,100570.09
2022-11-05T14:06:06.629Z,100568.28
2022-11-05T14:08:43.840Z,100570.06
2022-11-05T14:11:31.834Z,100559.41
2022-11-05T14:14:07.211Z,100575.28
2022-11-05T14:17:08.667Z,100561.16
2022-11-05T14:19:48.823Z,100563.81
2022-11-05T14:22:33.534Z,100562.91
2022-11-05T14:25:01.835Z,100556.78
2022-11-05T14:27:37.197Z,100559.38
2022-11-05T14:30:41.628Z,100554.94
2022-11-05T14:33:28.129Z,100549.69
2022-11-05T14:36:20.325Z,100554.94
2022-11-05T14:38:51.918Z,100552.31
2022-11-05T14:41:20.009Z,100555.81
2022-11-05T14:44:01.392Z,100559.31
2022-11-05T14:46:43.307Z,100546.91
2022-11-05T14:49:19.143Z,100543.34
2022-11-05T14:51:52.221Z,100546.84
2022-11-05T14:54:33.052Z,100547.72
2022-11-05T14:57:02.472Z,100537.19
2022-11-05T14:59:29.045Z,100534.47
2022-11-05T15:02:03.330Z,100528.22
2022-11-05T15:04:56.001Z,100531.72
2022-11-05T15:07:31.949Z,100531.72
2022-11-05T15:10:10.061Z,100519.44
2022-11-05T15:13:03.969Z,100516.72
2022-11-05T15:15:41.468Z,100523.88
2022-11-05T15:18:17.426Z,100525.53
2022-11-05T15:20:49.868Z,100521.16
2022-11-05T15:23:21.107Z,100525.44
2022-11-05T15:25:53.367Z,100527.19
2022-11-05T15:28:43.917Z,100528.94
2022-11-05T15:31:13.752Z,100524.56
2022-11-05T15:33:49.943Z,100520.19
2022-11-05T15:36:28.021Z,100522.81
2022-11-05T15:39:28.026Z,100527.09
2022-11-05T15:41:43.222Z,100523.59
2022-11-05T15:44:31.873Z,100523.59
2022-11-05T15:47:12.761Z,100516.59
2022-11-05T15:49:40.045Z,100520.00
2022-11-05T15:52:09.103Z,100523.56
2022-11-05T15:54:36.141Z,100525.31
2022-11-05T15:57:03.516Z,100518.31
2022-11-05T15:59:31.013Z,100522.66
2022-11-05T16:02:02.035Z,100526.25
2022-11-05T16:04:35.181Z,100528.88
2022-11-05T16:07:11.603Z,100526.25
2022-11-05T16:09:49.902Z,100530.66
2022-11-05T16:12:19.495Z,100529.72
2022-11-05T16:15:01.556Z,100529.72
2022-11-05T16:17:35.034Z,100528.78
2022-11-05T16:20:01.882Z,100520.91
2022-11-05T16:22:45.500Z,100520.94
2022-11-05T16:25:29.064Z,100528.88
2022-11-05T16:28:00.244Z,100531.63
2022-11-05T16:30:28.216Z,100522.00
2022-11-05T16:33:02.324Z,100528.19
2022-11-05T16:35:29.173Z,100531.84
2022-11-05T16:37:56.021Z,100531.78
2022-11-05T16:40:26.171Z,100531.03
2022-11-05T16:42:54.319Z,100529.41
2022-11-05T16:45:24.345Z,100532.97
2022-11-05T16:47:51.175Z,100535.69
2022-11-05T16:50:19.890Z,100525.25
2022-11-05T16:52:47.278Z,100531.50
2022-11-05T16:55:15.251Z,100528.97
2022-11-05T16:57:44.555Z,100528.19
2022-11-05T17:00:15.116Z,100529.13
2022-11-05T17:02:41.967Z,100531.88
2022-11-05T17:05:29.716Z,100533.75
2022-11-05T17:07:57.179Z,100536.41
2022-11-05T17:10:26.088Z,100529.41
2022-11-05T17:12:53.008Z,100527.69
2022-11-05T17:15:29.210Z,100523.38
2022-11-05T17:17:56.557Z,100523.44
2022-11-05T17:20:44.856Z,100530.56
2022-11-05T17:23:14.739Z,100526.25
2022-11-05T17:25:43.801Z,100521.91
2022-11-05T17:28:11.326Z,100521.94
2022-11-05T17:30:41.471Z,100524.69
2022-11-05T17:33:09.173Z,100533.53
2022-11-05T17:35:38.832Z,100527.47
2022-11-05T17:38:05.403Z,100540.78
2022-11-05T17:40:34.326Z,100531.97
2022-11-05T17:43:01.072Z,100525.06
2022-11-05T17:45:28.025Z,100524.19
2022-11-05T17:47:54.638Z,100533.09
2022-11-05T17:50:21.501Z,100527.84
2022-11-05T17:52:48.078Z,100534.97
2022-11-05T17:55:19.668Z,100542.94
2022-11-05T17:57:52.042Z,100544.75
2022-11-05T18:00:21.680Z,100537.75
2022-11-05T18:02:49.711Z,100542.16
2022-11-05T18:05:21.794Z,100540.41
2022-11-05T18:07:49.107Z,100537.78
2022-11-05T18:10:16.396Z,100545.78
2022-11-05T18:12:44.235Z,100542.25
2022-11-05T18:15:11.376Z,100536.09
2022-11-05T18:17:38.274Z,100532.66
2022-11-05T18:20:11.685Z,100537.94
2022-11-05T18:22:41.416Z,100538.84
2022-11-05T18:25:09.560Z,100536.25
2022-11-05T18:27:36.631Z,100537.16
2022-11-05T18:30:04.676Z,100537.09
2022-11-05T18:32:31.309Z,100538.88
2022-11-05T18:34:57.862Z,100539.84
2022-11-05T18:37:24.479Z,100543.34
2022-11-05T18:39:52.055Z,100543.41
2022-11-05T18:42:20.009Z,100542.56
2022-11-05T18:44:47.116Z,100540.81
2022-11-05T18:47:14.142Z,100535.63
2022-11-05T18:49:40.704Z,100542.72
2022-11-05T18:52:07.451Z,100537.50
2022-11-05T18:54:34.190Z,100538.59
2022-11-05T18:57:01.006Z,100537.84
2022-11-05T18:59:37.703Z,100539.63
2022-11-05T19:02:06.611Z,100540.56
2022-11-05T19:04:35.881Z,100547.69
2022-11-05T19:07:05.055Z,100547.69
2022-11-05T19:09:32.672Z,100543.25
2022-11-05T19:11:59.228Z,100541.47
2022-11-05T19:14:25.824Z,100549.34
2022-11-05T19:16:52.465Z,100551.13
2022-11-05T19:19:19.197Z,100552.03
2022-11-05T19:21:45.787Z,100549.41
2022-11-05T19:24:16.725Z,100552.97
2022-11-05T19:26:43.899Z,100545.91
2022-11-05T19:29:10.515Z,100552.97
2022-11-05T19:31:37.240Z,100556.41
2022-11-05T19:34:05.464Z,100559.97
2022-11-05T19:36:33.583Z,100560.84
2022-11-05T19:39:12.185Z,100552.97
2022-11-05T19:41:38.884Z,100559.13
2022-11-05T19:44:05.991Z,100559.13
2022-11-05T19:46:33.327Z,100560.91
2022-11-05T19:49:01.181Z,100561.78
2022-11-05T19:51:30.489Z,100565.34
2022-11-05T19:53:58.349Z,100568.84
2022-11-05T19:56:29.793Z,100565.25
2022-11-05T19:58:57.319Z,100569.59
2022-11-05T20:01:25.708Z,100573.94
2022-11-05T20:03:53.869Z,100573.91
2022-11-05T20:06:28.631Z,100573.88
2022-11-05T20:09:20.558Z,100571.22
2022-11-05T20:11:45.056Z,100568.59
2022-11-05T20:14:11.770Z,100573.00
2022-11-05T20:16:39.197Z,100575.72
2022-11-05T20:19:11.666Z,100570.44
2022-11-05T20:21:39.061Z,100575.72
2022-11-05T20:24:07.358Z,100582.81
2022-11-05T20:26:34.754Z,100582.03
2022-11-05T20:29:01.648Z,100584.66
2022-11-05T20:31:28.209Z,100588.09
2022-11-05T20:33:54.791Z,100579.38
2022-11-05T20:36:22.945Z,100573.34
2022-11-05T20:38:55.364Z,100573.34
2022-11-05T20:41:24.586Z,100583.97
2022-11-05T20:43:51.828Z,100581.34
2022-11-05T20:46:20.088Z,100579.63
2022-11-05T20:48:47.022Z,100577.91
2022-11-05T20:51:24.322Z,100584.06
2022-11-05T20:53:55.849Z,100579.72
2022-11-05T20:56:29.926Z,100578.88
2022-11-05T20:58:58.812Z,100576.16
2022-11-05T21:01:27.590Z,100583.19
2022-11-05T21:03:54.242Z,100583.19
2022-11-05T21:06:20.796Z,100585.81
2022-11-05T21:08:48.910Z,100572.63
2022-11-05T21:11:15.883Z,100582.25
2022-11-05T21:13:42.467Z,100577.84
2022-11-05T21:16:15.397Z,100587.56
2022-11-05T21:18:44.696Z,100584.03
2022-11-05T21:21:14.888Z,100587.56
2022-11-05T21:23:41.937Z,100581.50
2022-11-05T21:26:11.590Z,100570.94
2022-11-05T21:28:39.965Z,100585.03
2022-11-05T21:31:08.061Z,100579.78
2022-11-05T21:33:34.639Z,100588.63
2022-11-05T21:36:07.062Z,100578.16
2022-11-05T21:38:33.668Z,100583.44
2022-11-05T21:41:02.995Z,100580.88
2022-11-05T21:43:29.613Z,100585.28
2022-11-05T21:45:56.191Z,100589.72
2022-11-05T21:48:22.801Z,100582.75
2022-11-05T21:51:12.408Z,100591.56
2022-11-05T21:54:01.215Z,100591.59
2022-11-05T21:56:48.075Z,100596.06
2022-11-05T21:59:35.347Z,100588.25
2022-11-05T22:02:02.903Z,100595.31
2022-11-05T22:04:36.376Z,100601.50
2022-11-05T22:07:04.239Z,100603.31
2022-11-05T22:09:31.020Z,100612.94
2022-11-05T22:12:00.921Z,100609.50
2022-11-05T22:14:28.106Z,100610.41
2022-11-05T22:16:55.431Z,100611.28
2022-11-05T22:19:22.913Z,100603.38
2022-11-05T22:21:53.083Z,100615.78
2022-11-05T22:24:20.328Z,100620.22
2022-11-05T22:26:47.075Z,100623.72
2022-11-05T22:29:14.221Z,100623.69
2022-11-05T22:31:43.544Z,100613.06
2022-11-05T22:34:13.894Z,100621.75
2022-11-05T22:36:40.508Z,100612.00
2022-11-05T22:39:13.809Z,100617.13
2022-11-05T22:41:40.598Z,100624.91
2022-11-05T22:44:12.509Z,100621.25
2022-11-05T22:46:39.093Z,100625.53
2022-11-05T22:49:07.071Z,100621.00
2022-11-05T22:51:35.888Z,100624.38
2022-11-05T22:54:03.744Z,100624.31
2022-11-05T22:56:33.341Z,100618.06
2022-11-05T22:59:00.084Z,100621.53
2022-11-05T23:01:27.162Z,100621.41
2022-11-05T23:03:55.851Z,100617.91
2022-11-05T23:06:49.481Z,100615.19
2022-11-05T23:09:39.227Z,100616.91
2022-11-05T23:12:27.839Z,100624.75
2022-11-05T23:14:56.039Z,100616.78
2022-11-05T23:17:42.070Z,100619.31
2022-11-05T23:20:34.829Z,100613.13
2022-11-05T23:23:21.810Z,100613.97
2022-11-05T23:25:48.801Z,100624.47
2022-11-05T23:28:21.668Z,100617.38
2022-11-05T23:31:06.932Z,100619.09
2022-11-05T23:33:34.842Z,100619.94
2022-11-05T23:36:20.646Z,100618.16
2022-11-05T23:38:49.426Z,100613.72
2022-11-05T23:41:36.471Z,100618.13
2022-11-05T23:44:21.637Z,100621.56
2022-11-05T23:47:06.738Z,100624.22
2022-11-05T23:49:33.427Z,100627.69
2022-11-05T23:52:03.044Z,100626.78
2022-11-05T23:54:29.618Z,100625.84
2022-11-05T23:57:02.176Z,100623.19
2022-11-05T23:59:28.730Z,100620.47
